createdAt,value
2019-01-05T00:02:18.749Z,45.43
2019-01-05T00:05:04.095Z,47.80
2019-01-05T00:07:49.649Z,45.87
2019-01-05T00:10:35.141Z,47.77
2019-01-05T00:13:20.784Z,54.80
2019-01-05T00:16:16.824Z,57.87
2019-01-05T00:19:15.638Z,47.90
2019-01-05T00:22:02.771Z,57.77
2019-01-05T00:24:49.615Z,65.53
2019-01-05T00:27:35.170Z,60.07
2019-01-05T00:30:25.177Z,53.57
2019-01-05T00:33:15.489Z,48.60
2019-01-05T00:36:27.722Z,48.83
2019-01-05T00:39:23.465Z,55.43
2019-01-05T00:42:08.978Z,54.30
2019-01-05T00:44:54.665Z,57.40
2019-01-05T00:47:47.732Z,53.97
2019-01-05T00:50:46.802Z,45.27
2019-01-05T00:53:39.525Z,46.70
2019-01-05T00:56:26.685Z,43.17
2019-01-05T00:59:19.298Z,43.67
2019-01-05T01:02:06.414Z,45.40
2019-01-05T01:04:56.354Z,46.70
2019-01-05T01:07:55.618Z,45.97
2019-01-05T01:10:34.837Z,47.67
2019-01-05T01:13:20.157Z,49.63
2019-01-05T01:16:02.766Z,45.23
2019-01-05T01:18:49.961Z,45.70
2019-01-05T01:21:40.166Z,47.20
2019-01-05T01:24:33.081Z,45.97
2019-01-05T01:27:25.189Z,46.47
2019-01-05T01:30:27.259Z,45.40
2019-01-05T01:33:12.990Z,45.87
2019-01-05T01:36:00.171Z,46.63
2019-01-05T01:38:50.448Z,45.30
2019-01-05T01:42:03.216Z,47.43
2019-01-05T01:44:59.326Z,51.90
2019-01-05T01:47:40.280Z,53.43
2019-01-05T01:50:39.238Z,52.90
2019-01-05T01:53:38.522Z,47.20
2019-01-05T01:56:29.220Z,43.90
2019-01-05T01:59:27.154Z,44.13
2019-01-05T02:02:20.632Z,44.60
2019-01-05T02:05:06.368Z,40.47
2019-01-05T02:08:02.473Z,38.13
2019-01-05T02:10:53.194Z,36.30
2019-01-05T02:13:40.791Z,35.77
2019-01-05T02:16:31.004Z,40.10
2019-01-05T02:19:41.958Z,41.90
2019-01-05T02:23:04.764Z,36.83
2019-01-05T02:26:27.802Z,39.37
2019-01-05T02:29:45.241Z,39.57
2019-01-05T02:33:14.396Z,41.40
2019-01-05T02:36:41.040Z,43.40
2019-01-05T02:40:19.125Z,42.20
2019-01-05T02:44:04.130Z,41.13
2019-01-05T02:47:27.093Z,39.97
2019-01-05T02:50:50.041Z,41.00
2019-01-05T02:54:26.081Z,43.13
2019-01-05T02:57:59.485Z,43.03
2019-01-05T03:01:23.343Z,44.03
2019-01-05T03:05:10.089Z,50.10
2019-01-05T03:08:37.889Z,44.10
2019-01-05T03:12:28.954Z,46.20
2019-01-05T03:16:05.521Z,45.07
2019-01-05T03:19:41.481Z,42.53
2019-01-05T03:22:59.081Z,41.27
2019-01-05T03:26:36.408Z,36.73
2019-01-05T03:29:48.709Z,34.20
2019-01-05T03:33:27.341Z,34.23
2019-01-05T03:36:51.765Z,38.50
2019-01-05T03:40:17.954Z,47.07
2019-01-05T03:43:47.713Z,46.57
2019-01-05T03:47:47.186Z,50.40
2019-01-05T03:51:06.317Z,40.07
2019-01-05T03:54:32.505Z,56.07
2019-01-05T03:58:26.957Z,55.00
2019-01-05T04:01:48.545Z,47.43
2019-01-05T04:05:25.042Z,44.70
2019-01-05T04:08:59.480Z,41.83
2019-01-05T04:12:29.551Z,38.73
2019-01-05T04:16:09.601Z,41.93
2019-01-05T04:19:48.270Z,36.83
2019-01-05T04:23:21.448Z,38.53
2019-01-05T04:27:03.050Z,38.47
2019-01-05T04:30:32.449Z,42.77
2019-01-05T04:34:19.997Z,39.70
2019-01-05T04:37:59.413Z,39.13
2019-01-05T04:41:29.801Z,41.53
2019-01-05T04:45:03.393Z,39.53
2019-01-05T04:48:30.852Z,42.60
2019-01-05T04:51:54.753Z,37.57
2019-01-05T04:55:19.498Z,37.93
2019-01-05T04:58:45.300Z,41.30
2019-01-05T05:02:13.926Z,38.17
2019-01-05T05:05:53.057Z,39.03
2019-01-05T05:09:35.386Z,40.60
2019-01-05T05:13:09.361Z,36.50
2019-01-05T05:16:40.065Z,34.33
2019-01-05T05:20:17.106Z,31.07
2019-01-05T05:23:37.856Z,31.73
2019-01-05T05:27:09.511Z,33.87
2019-01-05T05:30:41.736Z,30.87
2019-01-05T05:34:23.060Z,30.87
2019-01-05T05:37:56.017Z,29.93
2019-01-05T05:41:25.794Z,30.27
2019-01-05T05:44:59.720Z,29.10
2019-01-05T05:48:00.483Z,30.30
2019-01-05T05:51:19.621Z,29.60
2019-01-05T05:54:56.433Z,28.47
2019-01-05T05:58:13.485Z,29.43
2019-01-05T06:01:37.357Z,30.37
2019-01-05T06:05:23.113Z,29.70
2019-01-05T06:09:05.445Z,31.00
2019-01-05T06:12:42.493Z,29.07
2019-01-05T06:16:33.169Z,30.30
2019-01-05T06:19:58.557Z,28.63
2019-01-05T06:23:11.840Z,26.43
2019-01-05T06:26:53.453Z,28.20
2019-01-05T06:30:49.237Z,29.17
2019-01-05T06:34:11.466Z,28.83
2019-01-05T06:37:40.281Z,27.93
2019-01-05T06:41:19.200Z,24.00
2019-01-05T06:44:35.503Z,28.27
2019-01-05T06:48:11.462Z,27.03
2019-01-05T06:51:30.016Z,25.80
2019-01-05T06:54:52.754Z,23.50
2019-01-05T06:58:39.929Z,26.70
2019-01-05T07:02:22.934Z,26.90
2019-01-05T07:06:06.030Z,26.13
2019-01-05T07:09:41.527Z,30.57
2019-01-05T07:13:18.064Z,28.20
2019-01-05T07:17:00.468Z,27.23
2019-01-05T07:20:31.869Z,29.17
2019-01-05T07:24:14.644Z,30.07
2019-01-05T07:27:39.209Z,30.90
2019-01-05T07:31:04.952Z,26.30
2019-01-05T07:34:17.685Z,29.03
2019-01-05T07:37:56.546Z,32.50
2019-01-05T07:41:33.460Z,32.97
2019-01-05T07:45:07.984Z,31.00
2019-01-05T07:48:46.717Z,29.40
2019-01-05T07:52:10.109Z,26.23
2019-01-05T07:55:26.943Z,34.90
2019-01-05T07:59:17.505Z,30.80
2019-01-05T08:02:59.132Z,48.67
2019-01-05T08:06:30.980Z,26.43
2019-01-05T08:09:58.229Z,26.60
2019-01-05T08:13:21.042Z,26.03
2019-01-05T08:17:00.257Z,28.83
2019-01-05T08:20:48.300Z,29.27
2019-01-05T08:24:13.445Z,29.07
2019-01-05T08:28:02.449Z,33.17
2019-01-05T08:31:57.994Z,37.63
2019-01-05T08:35:22.810Z,37.13
2019-01-05T08:39:03.737Z,35.30
2019-01-05T08:42:40.149Z,33.27
2019-01-05T08:46:02.607Z,34.53
2019-01-05T08:49:40.864Z,32.07
2019-01-05T08:53:14.374Z,30.82
2019-01-05T08:56:51.213Z,33.37
2019-01-05T09:00:13.865Z,33.87
2019-01-05T09:03:35.301Z,34.07
2019-01-05T09:07:10.893Z,30.00
2019-01-05T09:11:02.825Z,31.23
2019-01-05T09:14:28.301Z,37.37
2019-01-05T09:17:44.971Z,31.17
2019-01-05T09:21:21.710Z,33.27
2019-01-05T09:24:55.553Z,37.53
2019-01-05T09:28:34.589Z,33.27
2019-01-05T09:32:08.697Z,31.40
2019-01-05T09:35:31.720Z,34.13
2019-01-05T09:38:56.718Z,34.43
2019-01-05T09:42:25.905Z,36.37
2019-01-05T09:46:12.068Z,34.03
2019-01-05T09:49:38.277Z,31.63
2019-01-05T09:53:07.017Z,33.93
2019-01-05T09:56:34.685Z,35.03
2019-01-05T10:00:06.102Z,33.37
2019-01-05T10:03:29.961Z,34.83
2019-01-05T10:06:59.793Z,44.40
2019-01-05T10:13:37.524Z,33.50
2019-01-05T10:17:30.205Z,33.97
2019-01-05T10:21:07.137Z,32.40
2019-01-05T10:24:35.741Z,33.37
2019-01-05T10:27:54.040Z,32.53
2019-01-05T10:31:25.383Z,31.80
2019-01-05T10:34:47.744Z,31.33
2019-01-05T10:38:08.935Z,31.03
2019-01-05T10:41:44.116Z,30.97
2019-01-05T10:45:21.133Z,28.83
2019-01-05T10:48:51.732Z,29.73
2019-01-05T10:52:38.683Z,29.87
2019-01-05T10:56:15.796Z,31.00
2019-01-05T11:00:09.921Z,31.67
2019-01-05T11:04:07.865Z,30.20
2019-01-05T11:07:16.954Z,29.47
2019-01-05T11:10:47.518Z,29.33
2019-01-05T11:14:27.418Z,31.77
2019-01-05T11:17:59.141Z,27.20
2019-01-05T11:21:25.397Z,29.83
2019-01-05T11:24:58.043Z,26.57
2019-01-05T11:28:29.361Z,28.80
2019-01-05T11:31:49.433Z,32.00
2019-01-05T11:35:19.245Z,28.50
2019-01-05T11:38:41.784Z,27.10
2019-01-05T11:42:14.501Z,25.57
2019-01-05T11:45:56.310Z,24.87
2019-01-05T11:49:27.042Z,25.80
2019-01-05T11:53:05.698Z,25.80
2019-01-05T11:56:34.696Z,25.43
2019-01-05T12:00:05.014Z,25.87
2019-01-05T12:03:42.821Z,25.90
2019-01-05T12:07:15.684Z,24.40
2019-01-05T12:10:53.079Z,26.20
2019-01-05T12:14:22.382Z,26.00
2019-01-05T12:17:56.249Z,25.50
2019-01-05T12:21:26.857Z,27.27
2019-01-05T12:25:10.465Z,27.50
2019-01-05T12:28:46.493Z,29.50
2019-01-05T12:32:08.733Z,26.87
2019-01-05T12:35:30.361Z,25.83
2019-01-05T12:39:02.317Z,24.47
2019-01-05T12:42:33.896Z,24.13
2019-01-05T12:46:23.873Z,26.03
2019-01-05T12:49:51.717Z,26.13
2019-01-05T12:53:39.028Z,26.03
2019-01-05T12:57:29.838Z,24.97
2019-01-05T13:01:16.561Z,25.30
2019-01-05T13:04:46.079Z,25.80
2019-01-05T13:08:12.625Z,26.97
2019-01-05T13:11:55.173Z,26.40
2019-01-05T13:15:46.141Z,33.13
2019-01-05T13:19:17.790Z,25.93
2019-01-05T13:22:45.300Z,26.07
2019-01-05T13:26:36.400Z,26.43
2019-01-05T13:30:13.837Z,26.77
2019-01-05T13:33:35.749Z,25.87
2019-01-05T13:37:12.050Z,29.10
2019-01-05T13:40:57.490Z,26.83
2019-01-05T13:44:05.756Z,26.60
2019-01-05T13:47:26.661Z,26.37
2019-01-05T13:51:09.199Z,28.23
2019-01-05T13:54:17.546Z,26.50
2019-01-05T13:57:08.853Z,27.50
2019-01-05T13:59:58.822Z,27.33
2019-01-05T14:02:44.329Z,26.87
2019-01-05T14:05:34.465Z,26.20
2019-01-05T14:08:30.637Z,24.40
2019-01-05T14:11:20.165Z,24.90
2019-01-05T14:14:25.689Z,26.43
2019-01-05T14:17:11.733Z,24.70
2019-01-05T14:20:14.046Z,25.83
2019-01-05T14:23:19.109Z,25.27
2019-01-05T14:26:12.025Z,24.27
2019-01-05T14:28:57.661Z,24.03
2019-01-05T14:31:59.937Z,23.77
2019-01-05T14:34:45.714Z,24.27
2019-01-05T14:37:32.886Z,24.07
2019-01-05T14:40:38.225Z,24.03
2019-01-05T14:43:43.440Z,22.67
2019-01-05T14:46:30.777Z,23.97
2019-01-05T14:49:17.913Z,22.77
2019-01-05T14:52:13.961Z,22.47
2019-01-05T14:54:59.921Z,23.33
2019-01-05T14:57:49.485Z,22.47
2019-01-05T15:00:39.173Z,22.10
2019-01-05T15:03:24.690Z,23.97
2019-01-05T15:06:06.621Z,24.47
2019-01-05T15:08:52.165Z,25.70
2019-01-05T15:11:42.370Z,24.53
2019-01-05T15:14:27.766Z,22.43
2019-01-05T15:17:27.101Z,30.43
2019-01-05T15:20:26.157Z,27.43
2019-01-05T15:23:10.458Z,23.00
2019-01-05T15:26:09.481Z,24.33
2019-01-05T15:29:02.084Z,23.20
2019-01-05T15:31:58.352Z,21.77
2019-01-05T15:34:54.838Z,23.53
2019-01-05T15:37:44.149Z,22.37
2019-01-05T15:40:30.339Z,22.97
2019-01-05T15:43:17.469Z,22.53
2019-01-05T15:46:20.200Z,24.20
2019-01-05T15:49:06.849Z,25.83
2019-01-05T15:51:59.821Z,22.57
2019-01-05T15:54:52.735Z,23.97
2019-01-05T15:57:42.582Z,25.87
2019-01-05T16:00:47.619Z,22.90
2019-01-05T16:03:33.267Z,23.70
2019-01-05T16:06:19.185Z,23.63
2019-01-05T16:09:18.129Z,23.43
2019-01-05T16:12:08.985Z,25.53
2019-01-05T16:14:54.697Z,29.80
2019-01-05T16:17:43.785Z,25.47
2019-01-05T16:20:40.008Z,26.23
2019-01-05T16:23:33.079Z,26.37
2019-01-05T16:26:19.410Z,27.17
2019-01-05T16:29:04.925Z,27.63
2019-01-05T16:31:50.613Z,25.10
2019-01-05T16:34:36.130Z,28.83
2019-01-05T16:37:25.883Z,27.67
2019-01-05T16:40:06.881Z,28.10
2019-01-05T16:43:11.954Z,27.37
2019-01-05T16:45:57.513Z,29.63
2019-01-05T16:48:56.712Z,29.50
2019-01-05T16:51:43.113Z,29.77
2019-01-05T16:54:32.173Z,29.80
2019-01-05T16:57:19.315Z,29.17
2019-01-05T17:00:18.801Z,31.17
2019-01-05T17:03:21.005Z,28.27
2019-01-05T17:06:17.333Z,28.23
2019-01-05T17:09:10.338Z,29.20
2019-01-05T17:12:07.783Z,31.50
2019-01-05T17:14:49.019Z,42.30
2019-01-05T17:17:36.161Z,36.20
2019-01-05T17:20:29.867Z,36.00
2019-01-05T17:23:15.553Z,34.33
2019-01-05T17:26:01.497Z,35.93
2019-01-05T17:28:57.713Z,34.27
2019-01-05T17:31:51.569Z,34.77
2019-01-05T17:34:37.167Z,37.20
2019-01-05T17:37:22.957Z,41.40
2019-01-05T17:40:09.241Z,39.30
2019-01-05T17:42:56.345Z,40.43
2019-01-05T17:45:42.098Z,41.63
2019-01-05T17:48:32.085Z,41.07
2019-01-05T17:51:19.712Z,40.53
2019-01-05T17:54:07.969Z,37.60
2019-01-05T17:56:58.864Z,38.63
2019-01-05T17:59:58.945Z,36.67
2019-01-05T18:02:46.195Z,38.03
2019-01-05T18:05:36.199Z,38.90
2019-01-05T18:08:41.424Z,37.73
2019-01-05T18:11:32.945Z,37.57
2019-01-05T18:14:18.549Z,37.97
2019-01-05T18:17:04.315Z,40.87
2019-01-05T18:19:50.079Z,41.60
2019-01-05T18:22:31.782Z,37.93
2019-01-05T18:25:19.111Z,39.23
2019-01-05T18:28:04.669Z,38.77
2019-01-05T18:30:57.959Z,40.73
2019-01-05T18:33:43.599Z,44.13
2019-01-05T18:36:24.223Z,42.53
2019-01-05T18:39:29.477Z,43.57
2019-01-05T18:42:16.613Z,40.93
2019-01-05T18:45:03.790Z,42.57
2019-01-05T18:47:50.912Z,43.77
2019-01-05T18:50:34.168Z,45.53
2019-01-05T18:53:21.327Z,51.13
2019-01-05T18:56:14.113Z,45.57
2019-01-05T18:59:16.280Z,46.80
2019-01-05T19:02:12.217Z,50.70
2019-01-05T19:05:12.263Z,51.17
2019-01-05T19:07:58.204Z,48.07
2019-01-05T19:10:59.606Z,47.60
2019-01-05T19:13:50.951Z,44.50
2019-01-05T19:16:52.243Z,49.07
2019-01-05T19:19:37.801Z,44.90
2019-01-05T19:22:23.877Z,51.27
2019-01-05T19:25:16.829Z,57.23
2019-01-05T19:27:57.289Z,73.23
2019-01-05T19:30:44.505Z,94.30
2019-01-05T19:33:31.652Z,86.10
2019-01-05T19:36:21.433Z,81.87
2019-01-05T19:39:06.937Z,76.20
2019-01-05T19:41:52.798Z,65.30
2019-01-05T19:44:38.526Z,39.90
2019-01-05T19:47:31.605Z,41.73
2019-01-05T19:50:36.738Z,41.10
2019-01-05T19:53:42.120Z,54.47
2019-01-05T19:56:28.197Z,62.70
2019-01-05T19:59:13.781Z,64.20
2019-01-05T20:01:59.146Z,66.70
2019-01-05T20:04:55.345Z,65.53
2019-01-05T20:07:47.908Z,61.13
2019-01-05T20:10:33.646Z,73.17
2019-01-05T20:13:23.597Z,78.77
2019-01-05T20:16:16.637Z,74.90
2019-01-05T20:19:19.013Z,74.67
2019-01-05T20:22:06.153Z,80.73
2019-01-05T20:25:02.184Z,84.17
2019-01-05T20:27:43.981Z,83.70
2019-01-05T20:30:29.735Z,82.33
2019-01-05T20:33:15.637Z,81.80
2019-01-05T20:36:01.345Z,79.33
2019-01-05T20:38:47.117Z,76.90
2019-01-05T20:41:33.158Z,71.03
2019-01-05T20:44:18.913Z,75.10
2019-01-05T20:47:11.917Z,91.47
2019-01-05T20:49:57.721Z,91.08
2019-01-05T20:52:50.871Z,71.53
2019-01-05T20:55:38.009Z,72.20
2019-01-05T20:58:32.325Z,77.03
2019-01-05T21:01:31.389Z,84.43
2019-01-05T21:04:16.927Z,86.40
2019-01-05T21:07:02.884Z,86.70
2019-01-05T21:09:56.979Z,87.20
2019-01-05T21:12:44.120Z,81.20
2019-01-05T21:15:34.109Z,79.30
2019-01-05T21:18:19.723Z,67.47
2019-01-05T21:21:09.621Z,61.93
2019-01-05T21:23:56.778Z,57.23
2019-01-05T21:26:42.398Z,48.23
2019-01-05T21:29:28.471Z,44.80
2019-01-05T21:32:24.645Z,43.70
2019-01-05T21:35:11.786Z,47.07
2019-01-05T21:38:16.825Z,47.03
2019-01-05T21:41:15.891Z,45.20
2019-01-05T21:44:03.030Z,38.87
2019-01-05T21:46:48.341Z,42.07
2019-01-05T21:49:34.229Z,40.17
2019-01-05T21:52:33.428Z,38.37
2019-01-05T21:55:26.414Z,38.63
2019-01-05T21:58:28.525Z,38.97
2019-01-05T22:01:14.238Z,39.80
2019-01-05T22:04:19.137Z,49.23
2019-01-05T22:07:12.162Z,38.53
2019-01-05T22:10:14.665Z,39.33
2019-01-05T22:13:00.497Z,39.53
2019-01-05T22:15:53.708Z,39.73
2019-01-05T22:18:53.467Z,37.83
2019-01-05T22:21:39.049Z,41.50
2019-01-05T22:24:26.214Z,44.17
2019-01-05T22:27:21.082Z,58.60
2019-01-05T22:30:06.525Z,61.43
2019-01-05T22:32:53.710Z,59.07
2019-01-05T22:35:46.973Z,71.57
2019-01-05T22:38:33.010Z,68.57
2019-01-05T22:41:36.053Z,60.87
2019-01-05T22:44:21.788Z,61.23
2019-01-05T22:47:10.947Z,58.90
2019-01-05T22:49:57.901Z,60.23
2019-01-05T22:52:45.091Z,64.70
2019-01-05T22:55:32.321Z,58.83
2019-01-05T23:01:05.199Z,58.70
2019-01-05T23:03:55.663Z,57.67
2019-01-05T23:06:42.858Z,57.53
2019-01-05T23:09:35.620Z,57.83
2019-01-05T23:12:31.413Z,55.83
2019-01-05T23:15:15.805Z,59.33
2019-01-05T23:18:07.254Z,64.77
2019-01-05T23:20:52.713Z,58.73
2019-01-05T23:23:38.721Z,59.60
2019-01-05T23:26:28.629Z,58.20
2019-01-05T23:29:15.049Z,62.90
2019-01-05T23:32:05.182Z,68.83
2019-01-05T23:35:01.041Z,70.40
2019-01-05T23:38:06.505Z,76.63
2019-01-05T23:41:18.791Z,83.53
2019-01-05T23:44:04.325Z,81.83
2019-01-05T23:46:44.985Z,86.53
2019-01-05T23:49:32.108Z,80.60
2019-01-05T23:52:15.431Z,81.77
2019-01-05T23:55:00.741Z,77.17
2019-01-05T23:57:46.546Z,70.23
